• Join FlightAware (Why Join?)
  • Login
  • US Flag 
04:01AM EDT


 

Airport Tracker/Info


-or-


 

Live Flight TrackerFlight Track Log ✈ N4295R ✈ 14-Jul-2013 ✈ KIPT - KAOO

Flight Track Log - Related Links

Times and Time Zones

All times are in EDT time to prevent confusion due to time zone crossing. See the N4295R flight status page for this flight to view local times or setup timezone preferences in your user account.

Time Position Orientation Groundspeed Altitude Reporting Facility
EDT Latitude Longitude Course Direction KTS MPH feet Rate Location/Type
01:11PM 41.2053 -76.8933 242° Southwest 122 140 3,200  Level New York Center
01:12PM 41.1908 -76.9278 241° Southwest 110 127 3,800 600 Climbing New York Center
01:13PM 41.1767 -76.9625 242° Southwest 110 127 4,400 600 Climbing New York Center
01:14PM 41.1603 -76.9939 235° Southwest 105 121 5,000 540 Climbing New York Center
01:15PM 41.1043 -77.0935 229° Southwest  Level FlightAware Approximate
01:15PM 41.1461 -77.0258 240° Southwest 105 121 5,500  Level New York Center
01:16PM 41.1300 -77.0572 236° Southwest 105 121 6,000 240 Climbing New York Center
01:17PM 41.1136 -77.0917 238° Southwest 105 121 6,000  Level New York Center
01:18PM 41.0967 -77.1342 242° Southwest 118 136 6,000  Level New York Center
01:19PM 41.0758 -77.1733 235° Southwest 123 142 6,000  Level New York Center
01:20PM 41.0508 -77.2097 228° Southwest 136 157 6,000  Level New York Center
01:21PM 41.0303 -77.2461 233° Southwest 141 162 6,000  Level New York Center
01:22PM 41.0033 -77.2822 225° Southwest 141 162 6,000  Level New York Center
01:23PM 40.9825 -77.3186 233° Southwest 141 162 6,000  Level New York Center
01:24PM 40.9622 -77.3442 224° Southwest 136 157 6,000  Level New York Center
01:25PM 40.9369 -77.3858 231° Southwest 131 151 6,000 -60 Level New York Center
01:26PM 40.9097 -77.4269 229° Southwest 131 151 5,900  Descending New York Center
01:27PM 40.8828 -77.4628 225° Southwest 136 157 6,000 60 Climbing New York Center
01:28PM 40.8597 -77.4989 230° Southwest 136 157 6,100  Climbing New York Center
01:29PM 40.8347 -77.5350 228° Southwest 136 157 6,000 -120 Descending New York Center
01:30PM 40.8119 -77.5683 228° Southwest 136 157 5,900  Descending New York Center
01:31PM 40.7869 -77.6042 227° Southwest 136 157 6,000  Climbing New York Center
01:32PM 40.7664 -77.6378 231° Southwest 131 151 6,000  Level New York Center
01:33PM 40.7436 -77.6711 228° Southwest 131 151 6,100  Climbing New York Center
01:34PM 40.7186 -77.7069 227° Southwest 131 151 6,000 -60 Descending New York Center
01:35PM 40.6936 -77.7400 225° Southwest 131 151 6,000  Level New York Center
01:36PM 40.6586 -77.8022 233° Southwest 125 144 6,100  Climbing Cleveland Center
01:37PM 40.6347 -77.8414 231° Southwest 126 145 6,000 -60 Descending Cleveland Center
01:38PM 40.6253 -77.8831 253° West 134 154 6,000  Level Cleveland Center
01:39PM 40.6097 -77.9300 246° West 133 153 6,000  Level Cleveland Center
01:40PM 40.5917 -77.9692 239° Southwest 128 147 6,000  Level Cleveland Center
01:41PM 40.5783 -78.0161 250° West 127 146 6,000  Level Cleveland Center
01:42PM 40.5625 -78.0578 243° Southwest 130 150 6,000 -180 Level Cleveland Center
01:43PM 40.5447 -78.1019 242° Southwest 131 151 5,700 -480 Descending Cleveland Center
01:44PM 40.5311 -78.1464 248° West 140 161 5,100 -720 Descending Cleveland Center
01:46PM 40.5111 -78.1908 239° Southwest 136 157 4,300 -420 Descending Cleveland Center
01:47PM 40.4953 -78.2322 243° Southwest 128 147 4,300  Level Cleveland Center
01:48PM 40.4708 -78.2606 221° Southwest 119 137 4,300  Level Cleveland Center
01:50PM 40.4030 -78.2718 196° South  Level FlightAware Approximate
01:57PM 40.2964 -78.3200 196° South  Level Estimated
01:58PM 40.2964 -78.3200 196° South  Level Estimated